X  Cerrar Datos meteorológicos de aviación METAR     EHAM Amsterdam Airport Schiphol
Temperatura
48°F Temperatura
43°F Punto de rocío
82% Humedad



Viento
15 MPH
24 KM/H
7 M/S
13 NUDO



220°
SO
Condiciones actuales

Nubes mayormente dispersas Nubes mayormente dispersas
Presión 1008.81 (hPa) - 29.79 (inHg)
Visibilidad 6 (milla) - 9.7 (km)
Aeropuerto
Código de aeropuerto EHAM

localidad: Amsterdam Airport Schiphol
Distancia: 26 (mi)

Metar:
EHAM 150555Z 22013KT 9999 SCT022 09/06 Q1009 NOSIG

Hora: 15-04-2024 07:55 CEST